sensor_id;sensor_type;location;lat;lon;timestamp;pressure;altitude;pressure_sealevel;temperature
58909;BMP280;44690;48.154;17.102;2022-07-29T00:00:34;99513.56;;;22.04
58909;BMP280;44690;48.154;17.102;2022-07-29T00:02:07;99517.06;;;22.07
58909;BMP280;44690;48.154;17.102;2022-07-29T00:03:39;99516.38;;;22.06
58909;BMP280;44690;48.154;17.102;2022-07-29T00:05:11;99516.25;;;22.02
58909;BMP280;44690;48.154;17.102;2022-07-29T00:06:45;99511.88;;;21.95
58909;BMP280;44690;48.154;17.102;2022-07-29T00:08:18;99509.66;;;21.90
58909;BMP280;44690;48.154;17.102;2022-07-29T00:09:50;99521.25;;;21.84
58909;BMP280;44690;48.154;17.102;2022-07-29T00:11:23;99523.94;;;21.82
58909;BMP280;44690;48.154;17.102;2022-07-29T00:12:55;99526.00;;;21.82
58909;BMP280;44690;48.154;17.102;2022-07-29T00:14:28;99521.31;;;21.86
58909;BMP280;44690;48.154;17.102;2022-07-29T00:16:00;99523.56;;;21.92
58909;BMP280;44690;48.154;17.102;2022-07-29T00:17:35;99526.94;;;21.90
58909;BMP280;44690;48.154;17.102;2022-07-29T00:19:08;99529.59;;;21.86
58909;BMP280;44690;48.154;17.102;2022-07-29T00:20:41;99529.69;;;21.90
58909;BMP280;44690;48.154;17.102;2022-07-29T00:22:14;99531.91;;;21.94
58909;BMP280;44690;48.154;17.102;2022-07-29T00:23:46;99535.34;;;21.94
58909;BMP280;44690;48.154;17.102;2022-07-29T00:25:18;99536.84;;;21.97
58909;BMP280;44690;48.154;17.102;2022-07-29T00:26:51;99543.84;;;22.00
58909;BMP280;44690;48.154;17.102;2022-07-29T00:28:23;99537.00;;;22.03
58909;BMP280;44690;48.154;17.102;2022-07-29T00:29:55;99535.94;;;22.13
58909;BMP280;44690;48.154;17.102;2022-07-29T00:31:27;99541.66;;;22.21
58909;BMP280;44690;48.154;17.102;2022-07-29T00:33:00;99535.56;;;22.24
58909;BMP280;44690;48.154;17.102;2022-07-29T00:34:32;99535.63;;;22.26
58909;BMP280;44690;48.154;17.102;2022-07-29T00:36:23;99541.84;;;22.27
58909;BMP280;44690;48.154;17.102;2022-07-29T00:37:55;99538.38;;;22.26
58909;BMP280;44690;48.154;17.102;2022-07-29T00:39:28;99543.97;;;22.28
58909;BMP280;44690;48.154;17.102;2022-07-29T00:41:00;99546.03;;;22.28
58909;BMP280;44690;48.154;17.102;2022-07-29T00:42:45;99544.66;;;22.29
58909;BMP280;44690;48.154;17.102;2022-07-29T00:44:18;99539.09;;;22.27
58909;BMP280;44690;48.154;17.102;2022-07-29T00:45:51;99544.63;;;22.27
58909;BMP280;44690;48.154;17.102;2022-07-29T00:47:23;99536.91;;;22.23
58909;BMP280;44690;48.154;17.102;2022-07-29T00:48:55;99543.66;;;22.18
58909;BMP280;44690;48.154;17.102;2022-07-29T00:50:27;99547.00;;;22.15
58909;BMP280;44690;48.154;17.102;2022-07-29T00:52:01;99545.50;;;22.10
58909;BMP280;44690;48.154;17.102;2022-07-29T00:53:33;99542.66;;;22.07
58909;BMP280;44690;48.154;17.102;2022-07-29T00:55:07;99543.31;;;22.06
58909;BMP280;44690;48.154;17.102;2022-07-29T00:56:39;99532.81;;;22.02
58909;BMP280;44690;48.154;17.102;2022-07-29T00:58:12;99541.66;;;21.97
58909;BMP280;44690;48.154;17.102;2022-07-29T00:59:46;99541.53;;;21.93
58909;BMP280;44690;48.154;17.102;2022-07-29T01:01:18;99538.66;;;21.89
58909;BMP280;44690;48.154;17.102;2022-07-29T01:02:51;99541.28;;;21.85
58909;BMP280;44690;48.154;17.102;2022-07-29T01:04:23;99539.16;;;21.83
58909;BMP280;44690;48.154;17.102;2022-07-29T01:05:56;99534.94;;;21.80
58909;BMP280;44690;48.154;17.102;2022-07-29T01:07:28;99536.22;;;21.77
58909;BMP280;44690;48.154;17.102;2022-07-29T01:09:02;99521.69;;;21.77
58909;BMP280;44690;48.154;17.102;2022-07-29T01:10:35;99524.47;;;21.77
58909;BMP280;44690;48.154;17.102;2022-07-29T01:12:11;99525.69;;;21.71
58909;BMP280;44690;48.154;17.102;2022-07-29T01:13:44;99523.63;;;21.72
58909;BMP280;44690;48.154;17.102;2022-07-29T01:15:17;99522.84;;;21.69
58909;BMP280;44690;48.154;17.102;2022-07-29T01:18:32;99518.06;;;21.70
58909;BMP280;44690;48.154;17.102;2022-07-29T01:23:23;99520.56;;;21.62
58909;BMP280;44690;48.154;17.102;2022-07-29T01:25:12;99517.81;;;21.62
58909;BMP280;44690;48.154;17.102;2022-07-29T01:30:04;99513.78;;;21.67
58909;BMP280;44690;48.154;17.102;2022-07-29T01:33:31;99519.25;;;21.65
58909;BMP280;44690;48.154;17.102;2022-07-29T01:35:26;99523.38;;;21.64
58909;BMP280;44690;48.154;17.102;2022-07-29T01:37:08;99515.22;;;21.68
58909;BMP280;44690;48.154;17.102;2022-07-29T01:38:45;99515.91;;;21.68
58909;BMP280;44690;48.154;17.102;2022-07-29T01:40:22;99522.78;;;21.67
58909;BMP280;44690;48.154;17.102;2022-07-29T01:41:58;99521.94;;;21.63
58909;BMP280;44690;48.154;17.102;2022-07-29T01:43:34;99522.53;;;21.59
58909;BMP280;44690;48.154;17.102;2022-07-29T01:46:44;99518.34;;;21.58
58909;BMP280;44690;48.154;17.102;2022-07-29T01:48:22;99521.06;;;21.56
58909;BMP280;44690;48.154;17.102;2022-07-29T01:49:56;99516.09;;;21.53
58909;BMP280;44690;48.154;17.102;2022-07-29T01:51:30;99510.47;;;21.49
58909;BMP280;44690;48.154;17.102;2022-07-29T01:53:06;99508.19;;;21.43
58909;BMP280;44690;48.154;17.102;2022-07-29T01:54:42;99512.13;;;21.36
58909;BMP280;44690;48.154;17.102;2022-07-29T01:56:18;99519.66;;;21.33
58909;BMP280;44690;48.154;17.102;2022-07-29T01:57:52;99514.91;;;21.36
58909;BMP280;44690;48.154;17.102;2022-07-29T01:59:24;99517.66;;;21.36
58909;BMP280;44690;48.154;17.102;2022-07-29T02:00:58;99516.22;;;21.35
58909;BMP280;44690;48.154;17.102;2022-07-29T02:02:31;99507.22;;;21.34
58909;BMP280;44690;48.154;17.102;2022-07-29T02:04:06;99507.19;;;21.32
58909;BMP280;44690;48.154;17.102;2022-07-29T02:05:39;99503.09;;;21.33
58909;BMP280;44690;48.154;17.102;2022-07-29T02:07:13;99510.91;;;21.41
58909;BMP280;44690;48.154;17.102;2022-07-29T02:08:46;99513.09;;;21.45
58909;BMP280;44690;48.154;17.102;2022-07-29T02:10:21;99508.41;;;21.49
58909;BMP280;44690;48.154;17.102;2022-07-29T02:11:56;99512.59;;;21.50
58909;BMP280;44690;48.154;17.102;2022-07-29T02:13:30;99517.41;;;21.50
58909;BMP280;44690;48.154;17.102;2022-07-29T02:15:04;99511.81;;;21.48
58909;BMP280;44690;48.154;17.102;2022-07-29T02:16:37;99513.09;;;21.45
58909;BMP280;44690;48.154;17.102;2022-07-29T02:18:12;99513.69;;;21.41
58909;BMP280;44690;48.154;17.102;2022-07-29T02:19:46;99513.59;;;21.39
58909;BMP280;44690;48.154;17.102;2022-07-29T02:21:20;99514.25;;;21.37
58909;BMP280;44690;48.154;17.102;2022-07-29T02:22:53;99509.38;;;21.36
58909;BMP280;44690;48.154;17.102;2022-07-29T02:24:26;99506.63;;;21.36
58909;BMP280;44690;48.154;17.102;2022-07-29T02:26:00;99508.03;;;21.37
58909;BMP280;44690;48.154;17.102;2022-07-29T02:27:33;99510.13;;;21.38
58909;BMP280;44690;48.154;17.102;2022-07-29T02:29:09;99501.81;;;21.36
58909;BMP280;44690;48.154;17.102;2022-07-29T02:30:42;99510.69;;;21.35
58909;BMP280;44690;48.154;17.102;2022-07-29T02:32:14;99508.75;;;21.37
58909;BMP280;44690;48.154;17.102;2022-07-29T02:33:47;99512.25;;;21.40
58909;BMP280;44690;48.154;17.102;2022-07-29T02:35:20;99502.56;;;21.39
58909;BMP280;44690;48.154;17.102;2022-07-29T02:36:53;99503.25;;;21.39
58909;BMP280;44690;48.154;17.102;2022-07-29T02:38:27;99508.16;;;21.41
58909;BMP280;44690;48.154;17.102;2022-07-29T02:40:19;99510.13;;;21.38
58909;BMP280;44690;48.154;17.102;2022-07-29T02:41:58;99505.28;;;21.37
58909;BMP280;44690;48.154;17.102;2022-07-29T02:43:33;99506.63;;;21.36
58909;BMP280;44690;48.154;17.102;2022-07-29T02:45:06;99499.03;;;21.36
58909;BMP280;44690;48.154;17.102;2022-07-29T02:46:41;99506.09;;;21.42
58909;BMP280;44690;48.154;17.102;2022-07-29T02:48:15;99510.25;;;21.42
58909;BMP280;44690;48.154;17.102;2022-07-29T02:51:35;99511.75;;;21.46
58909;BMP280;44690;48.154;17.102;2022-07-29T02:53:17;99505.53;;;21.45
58909;BMP280;44690;48.154;17.102;2022-07-29T02:56:26;99502.91;;;21.49
58909;BMP280;44690;48.154;17.102;2022-07-29T02:58:00;99502.91;;;21.49
58909;BMP280;44690;48.154;17.102;2022-07-29T02:59:34;99504.97;;;21.49
58909;BMP280;44690;48.154;17.102;2022-07-29T03:01:11;99500.75;;;21.48
58909;BMP280;44690;48.154;17.102;2022-07-29T03:02:52;99502.81;;;21.47
58909;BMP280;44690;48.154;17.102;2022-07-29T03:04:25;99500.63;;;21.44
58909;BMP280;44690;48.154;17.102;2022-07-29T03:06:01;99504.09;;;21.44
58909;BMP280;44690;48.154;17.102;2022-07-29T03:07:34;99506.28;;;21.48
58909;BMP280;44690;48.154;17.102;2022-07-29T03:09:06;99508.41;;;21.49
58909;BMP280;44690;48.154;17.102;2022-07-29T03:10:44;99511.19;;;21.49
58909;BMP280;44690;48.154;17.102;2022-07-29T03:12:17;99505.56;;;21.47
58909;BMP280;44690;48.154;17.102;2022-07-29T03:13:50;99501.97;;;21.42
58909;BMP280;44690;48.154;17.102;2022-07-29T03:15:22;99503.25;;;21.39
58909;BMP280;44690;48.154;17.102;2022-07-29T03:16:55;99506.56;;;21.34
58909;BMP280;44690;48.154;17.102;2022-07-29T03:18:28;99507.75;;;21.29
58909;BMP280;44690;48.154;17.102;2022-07-29T03:20:00;99508.34;;;21.25
58909;BMP280;44690;48.154;17.102;2022-07-29T03:21:33;99509.53;;;21.20
58909;BMP280;44690;48.154;17.102;2022-07-29T03:23:06;99517.06;;;21.18
58909;BMP280;44690;48.154;17.102;2022-07-29T03:24:38;99513.53;;;21.15
58909;BMP280;44690;48.154;17.102;2022-07-29T03:26:11;99511.31;;;21.12
58909;BMP280;44690;48.154;17.102;2022-07-29T03:27:44;99511.19;;;21.07
58909;BMP280;44690;48.154;17.102;2022-07-29T03:29:16;99515.94;;;21.05
58909;BMP280;44690;48.154;17.102;2022-07-29T03:30:50;99514.53;;;21.04
58909;BMP280;44690;48.154;17.102;2022-07-29T03:32:23;99510.97;;;21.01
58909;BMP280;44690;48.154;17.102;2022-07-29T03:33:56;99513.03;;;21.01
58909;BMP280;44690;48.154;17.102;2022-07-29T03:35:29;99520.03;;;21.04
58909;BMP280;44690;48.154;17.102;2022-07-29T03:37:04;99524.13;;;21.03
58909;BMP280;44690;48.154;17.102;2022-07-29T03:38:38;99520.03;;;21.04
58909;BMP280;44690;48.154;17.102;2022-07-29T03:40:14;99516.63;;;21.05
58909;BMP280;44690;48.154;17.102;2022-07-29T03:41:48;99523.56;;;21.06
58909;BMP280;44690;48.154;17.102;2022-07-29T03:43:24;99515.28;;;21.06
58909;BMP280;44690;48.154;17.102;2022-07-29T03:44:58;99517.47;;;21.10
58909;BMP280;44690;48.154;17.102;2022-07-29T03:46:31;99515.44;;;21.11
58909;BMP280;44690;48.154;17.102;2022-07-29T03:48:07;99525.19;;;21.14
58909;BMP280;44690;48.154;17.102;2022-07-29T03:49:40;99515.81;;;21.23
58909;BMP280;44690;48.154;17.102;2022-07-29T03:51:13;99521.13;;;21.36
58909;BMP280;44690;48.154;17.102;2022-07-29T03:52:45;99519.63;;;21.55
58909;BMP280;44690;48.154;17.102;2022-07-29T03:54:17;99516.50;;;21.65
58909;BMP280;44690;48.154;17.102;2022-07-29T03:55:52;99523.38;;;21.64
58909;BMP280;44690;48.154;17.102;2022-07-29T03:57:25;99516.44;;;21.63
58909;BMP280;44690;48.154;17.102;2022-07-29T03:58:59;99519.06;;;21.59
58909;BMP280;44690;48.154;17.102;2022-07-29T04:00:32;99520.44;;;21.58
58909;BMP280;44690;48.154;17.102;2022-07-29T04:02:06;99527.28;;;21.57
58909;BMP280;44690;48.154;17.102;2022-07-29T04:03:40;99521.13;;;21.58
58909;BMP280;44690;48.154;17.102;2022-07-29T04:05:12;99527.34;;;21.59
58909;BMP280;44690;48.154;17.102;2022-07-29T04:06:45;99526.72;;;21.60
58909;BMP280;44690;48.154;17.102;2022-07-29T04:08:19;99519.13;;;21.61
58909;BMP280;44690;48.154;17.102;2022-07-29T04:09:51;99524.72;;;21.63
58909;BMP280;44690;48.154;17.102;2022-07-29T04:11:24;99533.06;;;21.65
58909;BMP280;44690;48.154;17.102;2022-07-29T04:12:56;99531.78;;;21.68
58909;BMP280;44690;48.154;17.102;2022-07-29T04:14:28;99533.97;;;21.71
58909;BMP280;44690;48.154;17.102;2022-07-29T04:16:00;99535.44;;;21.74
58909;BMP280;44690;48.154;17.102;2022-07-29T04:17:33;99537.56;;;21.76
58909;BMP280;44690;48.154;17.102;2022-07-29T04:19:05;99531.41;;;21.78
58909;BMP280;44690;48.154;17.102;2022-07-29T04:20:38;99539.81;;;21.82
58909;BMP280;44690;48.154;17.102;2022-07-29T04:22:10;99535.75;;;21.85
58909;BMP280;44690;48.154;17.102;2022-07-29T04:23:42;99532.41;;;21.88
58909;BMP280;44690;48.154;17.102;2022-07-29T04:25:24;99534.59;;;21.92
58909;BMP280;44690;48.154;17.102;2022-07-29T04:26:57;99533.41;;;21.99
58909;BMP280;44690;48.154;17.102;2022-07-29T04:28:29;99532.91;;;22.04
58909;BMP280;44690;48.154;17.102;2022-07-29T04:30:01;99534.50;;;22.12
58909;BMP280;44690;48.154;17.102;2022-07-29T04:31:34;99531.94;;;22.18
58909;BMP280;44690;48.154;17.102;2022-07-29T04:33:07;99531.47;;;22.25
58909;BMP280;44690;48.154;17.102;2022-07-29T04:34:39;99536.50;;;22.33
58909;BMP280;44690;48.154;17.102;2022-07-29T04:36:12;99534.38;;;22.55
58909;BMP280;44690;48.154;17.102;2022-07-29T04:38:00;99529.97;;;23.26
58909;BMP280;44690;48.154;17.102;2022-07-29T04:39:32;99520.59;;;24.01
58909;BMP280;44690;48.154;17.102;2022-07-29T04:41:05;99528.25;;;24.72
58909;BMP280;44690;48.154;17.102;2022-07-29T04:42:38;99520.97;;;25.37
58909;BMP280;44690;48.154;17.102;2022-07-29T04:44:17;99526.19;;;26.15
58909;BMP280;44690;48.154;17.102;2022-07-29T04:45:50;99523.25;;;26.68
58909;BMP280;44690;48.154;17.102;2022-07-29T04:47:25;99534.78;;;27.16
58909;BMP280;44690;48.154;17.102;2022-07-29T04:48:57;99539.25;;;27.60
58909;BMP280;44690;48.154;17.102;2022-07-29T04:50:30;99533.13;;;27.92
58909;BMP280;44690;48.154;17.102;2022-07-29T04:52:02;99536.72;;;28.29
58909;BMP280;44690;48.154;17.102;2022-07-29T04:53:34;99538.19;;;28.58
58909;BMP280;44690;48.154;17.102;2022-07-29T04:55:07;99541.69;;;28.69
58909;BMP280;44690;48.154;17.102;2022-07-29T04:56:39;99540.28;;;28.74
58909;BMP280;44690;48.154;17.102;2022-07-29T04:58:11;99536.06;;;28.93
58909;BMP280;44690;48.154;17.102;2022-07-29T04:59:43;99537.47;;;29.17
58909;BMP280;44690;48.154;17.102;2022-07-29T05:01:16;99545.13;;;29.22
58909;BMP280;44690;48.154;17.102;2022-07-29T05:02:48;99533.91;;;29.44
58909;BMP280;44690;48.154;17.102;2022-07-29T05:04:21;99542.16;;;29.81
58909;BMP280;44690;48.154;17.102;2022-07-29T05:05:54;99539.94;;;30.04
58909;BMP280;44690;48.154;17.102;2022-07-29T05:07:27;99537.00;;;30.28
58909;BMP280;44690;48.154;17.102;2022-07-29T05:08:59;99539.63;;;30.54
58909;BMP280;44690;48.154;17.102;2022-07-29T05:10:31;99539.47;;;30.73
58909;BMP280;44690;48.154;17.102;2022-07-29T05:12:04;99533.06;;;30.86
58909;BMP280;44690;48.154;17.102;2022-07-29T05:13:37;99538.53;;;31.03
58909;BMP280;44690;48.154;17.102;2022-07-29T05:15:18;99537.47;;;31.34
58909;BMP280;44690;48.154;17.102;2022-07-29T05:16:53;99545.34;;;31.20
58909;BMP280;44690;48.154;17.102;2022-07-29T05:18:28;99539.91;;;31.04
58909;BMP280;44690;48.154;17.102;2022-07-29T05:20:01;99547.59;;;31.07
58909;BMP280;44690;48.154;17.102;2022-07-29T05:21:34;99545.09;;;31.42
58909;BMP280;44690;48.154;17.102;2022-07-29T05:23:07;99534.88;;;31.73
58909;BMP280;44690;48.154;17.102;2022-07-29T05:24:39;99545.19;;;31.89
58909;BMP280;44690;48.154;17.102;2022-07-29T05:26:15;99546.34;;;32.08
58909;BMP280;44690;48.154;17.102;2022-07-29T05:27:47;99550.03;;;32.42
58909;BMP280;44690;48.154;17.102;2022-07-29T05:29:22;99554.03;;;32.57
58909;BMP280;44690;48.154;17.102;2022-07-29T05:31:14;99545.78;;;32.86
58909;BMP280;44690;48.154;17.102;2022-07-29T05:32:46;99554.88;;;32.88
58909;BMP280;44690;48.154;17.102;2022-07-29T05:34:19;99548.81;;;32.72
58909;BMP280;44690;48.154;17.102;2022-07-29T05:35:51;99548.25;;;32.65
58909;BMP280;44690;48.154;17.102;2022-07-29T05:37:30;99547.09;;;32.52
58909;BMP280;44690;48.154;17.102;2022-07-29T05:39:02;99544.06;;;32.19
58909;BMP280;44690;48.154;17.102;2022-07-29T05:40:35;99542.50;;;31.81
58909;BMP280;44690;48.154;17.102;2022-07-29T05:42:08;99549.22;;;31.47
58909;BMP280;44690;48.154;17.102;2022-07-29T05:43:40;99545.88;;;31.34
58909;BMP280;44690;48.154;17.102;2022-07-29T05:45:12;99554.13;;;31.49
58909;BMP280;44690;48.154;17.102;2022-07-29T05:46:45;99550.41;;;31.66
58909;BMP280;44690;48.154;17.102;2022-07-29T05:48:19;99538.81;;;31.95
58909;BMP280;44690;48.154;17.102;2022-07-29T05:49:51;99540.75;;;32.06
58909;BMP280;44690;48.154;17.102;2022-07-29T05:51:24;99544.66;;;32.28
58909;BMP280;44690;48.154;17.102;2022-07-29T05:52:56;99548.56;;;32.45
58909;BMP280;44690;48.154;17.102;2022-07-29T05:54:28;99551.94;;;32.53
58909;BMP280;44690;48.154;17.102;2022-07-29T05:56:04;99551.41;;;32.86
58909;BMP280;44690;48.154;17.102;2022-07-29T05:57:39;99551.59;;;33.13
58909;BMP280;44690;48.154;17.102;2022-07-29T05:59:11;99547.94;;;33.55
58909;BMP280;44690;48.154;17.102;2022-07-29T06:00:49;99545.19;;;34.15
58909;BMP280;44690;48.154;17.102;2022-07-29T06:02:21;99550.44;;;34.31
58909;BMP280;44690;48.154;17.102;2022-07-29T06:03:54;99547.72;;;34.27
58909;BMP280;44690;48.154;17.102;2022-07-29T06:05:26;99543.56;;;34.24
58909;BMP280;44690;48.154;17.102;2022-07-29T06:06:59;99548.03;;;34.42
58909;BMP280;44690;48.154;17.102;2022-07-29T06:08:31;99552.78;;;34.21
58909;BMP280;44690;48.154;17.102;2022-07-29T06:10:05;99553.69;;;34.13
58909;BMP280;44690;48.154;17.102;2022-07-29T06:11:37;99554.16;;;33.93
58909;BMP280;44690;48.154;17.102;2022-07-29T06:13:10;99538.81;;;34.16
58909;BMP280;44690;48.154;17.102;2022-07-29T06:14:42;99542.47;;;34.67
58909;BMP280;44690;48.154;17.102;2022-07-29T06:16:14;99546.00;;;34.67
58909;BMP280;44690;48.154;17.102;2022-07-29T06:18:00;99542.38;;;34.71
58909;BMP280;44690;48.154;17.102;2022-07-29T06:19:34;99546.75;;;34.92
58909;BMP280;44690;48.154;17.102;2022-07-29T06:21:07;99535.69;;;35.09
58909;BMP280;44690;48.154;17.102;2022-07-29T06:22:40;99537.03;;;35.12
58909;BMP280;44690;48.154;17.102;2022-07-29T06:24:13;99530.97;;;35.26
58909;BMP280;44690;48.154;17.102;2022-07-29T06:25:46;99536.94;;;35.39
58909;BMP280;44690;48.154;17.102;2022-07-29T06:27:18;99541.84;;;35.41
58909;BMP280;44690;48.154;17.102;2022-07-29T06:28:50;99533.63;;;35.55
58909;BMP280;44690;48.154;17.102;2022-07-29T06:30:23;99540.22;;;35.48
58909;BMP280;44690;48.154;17.102;2022-07-29T06:31:55;99537.13;;;35.33
58909;BMP280;44690;48.154;17.102;2022-07-29T06:33:28;99535.25;;;35.48
58909;BMP280;44690;48.154;17.102;2022-07-29T06:35:00;99539.00;;;35.65
58909;BMP280;44690;48.154;17.102;2022-07-29T06:36:53;99543.31;;;35.62
58909;BMP280;44690;48.154;17.102;2022-07-29T06:38:25;99543.97;;;35.40
58909;BMP280;44690;48.154;17.102;2022-07-29T06:40:03;99550.50;;;34.85
58909;BMP280;44690;48.154;17.102;2022-07-29T06:41:56;99543.22;;;34.92
58909;BMP280;44690;48.154;17.102;2022-07-29T06:43:32;99545.41;;;35.14
58909;BMP280;44690;48.154;17.102;2022-07-29T06:45:06;99548.78;;;34.69
58909;BMP280;44690;48.154;17.102;2022-07-29T06:46:40;99563.75;;;34.35
58909;BMP280;44690;48.154;17.102;2022-07-29T06:48:12;99558.34;;;34.25
58909;BMP280;44690;48.154;17.102;2022-07-29T06:49:45;99540.22;;;34.15
58909;BMP280;44690;48.154;17.102;2022-07-29T06:51:17;99545.16;;;34.17
58909;BMP280;44690;48.154;17.102;2022-07-29T06:52:54;99556.44;;;34.17
58909;BMP280;44690;48.154;17.102;2022-07-29T06:54:26;99547.78;;;33.94
58909;BMP280;44690;48.154;17.102;2022-07-29T06:55:59;99549.13;;;33.64
58909;BMP280;44690;48.154;17.102;2022-07-29T06:57:32;99554.91;;;33.58
58909;BMP280;44690;48.154;17.102;2022-07-29T06:59:04;99548.84;;;33.79
58909;BMP280;44690;48.154;17.102;2022-07-29T07:00:37;99556.22;;;33.94
58909;BMP280;44690;48.154;17.102;2022-07-29T07:02:10;99555.38;;;34.02
58909;BMP280;44690;48.154;17.102;2022-07-29T07:03:42;99555.84;;;34.10
58909;BMP280;44690;48.154;17.102;2022-07-29T07:05:14;99552.69;;;34.53
58909;BMP280;44690;48.154;17.102;2022-07-29T07:06:47;99559.00;;;34.27
58909;BMP280;44690;48.154;17.102;2022-07-29T07:08:19;99550.00;;;33.90
58909;BMP280;44690;48.154;17.102;2022-07-29T07:09:52;99559.13;;;33.92
58909;BMP280;44690;48.154;17.102;2022-07-29T07:11:24;99553.53;;;34.19
58909;BMP280;44690;48.154;17.102;2022-07-29T07:12:57;99557.53;;;34.30
58909;BMP280;44690;48.154;17.102;2022-07-29T07:14:29;99565.44;;;33.91
58909;BMP280;44690;48.154;17.102;2022-07-29T07:16:02;99556.22;;;33.28
58909;BMP280;44690;48.154;17.102;2022-07-29T07:17:34;99551.81;;;33.03
58909;BMP280;44690;48.154;17.102;2022-07-29T07:19:06;99552.50;;;33.03
58909;BMP280;44690;48.154;17.102;2022-07-29T07:20:39;99551.47;;;33.19
58909;BMP280;44690;48.154;17.102;2022-07-29T07:22:11;99555.28;;;33.40
58909;BMP280;44690;48.154;17.102;2022-07-29T07:23:43;99557.13;;;33.54
58909;BMP280;44690;48.154;17.102;2022-07-29T07:25:15;99556.13;;;33.67
58909;BMP280;44690;48.154;17.102;2022-07-29T07:26:49;99554.13;;;33.95
58909;BMP280;44690;48.154;17.102;2022-07-29T07:28:21;99546.91;;;34.31
58909;BMP280;44690;48.154;17.102;2022-07-29T07:29:55;99554.25;;;33.89
58909;BMP280;44690;48.154;17.102;2022-07-29T07:31:28;99543.84;;;33.50
58909;BMP280;44690;48.154;17.102;2022-07-29T07:33:01;99551.06;;;33.74
58909;BMP280;44690;48.154;17.102;2022-07-29T07:34:33;99557.66;;;33.93
58909;BMP280;44690;48.154;17.102;2022-07-29T07:36:05;99552.13;;;33.89
58909;BMP280;44690;48.154;17.102;2022-07-29T07:37:38;99550.59;;;34.25
58909;BMP280;44690;48.154;17.102;2022-07-29T07:39:12;99542.81;;;34.54
58909;BMP280;44690;48.154;17.102;2022-07-29T07:40:45;99535.94;;;34.74
58909;BMP280;44690;48.154;17.102;2022-07-29T07:42:18;99533.66;;;35.06
58909;BMP280;44690;48.154;17.102;2022-07-29T07:43:50;99544.59;;;35.20
58909;BMP280;44690;48.154;17.102;2022-07-29T07:45:23;99547.19;;;34.76
58909;BMP280;44690;48.154;17.102;2022-07-29T07:46:56;99546.41;;;33.93
58909;BMP280;44690;48.154;17.102;2022-07-29T07:48:34;99545.72;;;33.60
58909;BMP280;44690;48.154;17.102;2022-07-29T07:50:09;99544.59;;;33.47
58909;BMP280;44690;48.154;17.102;2022-07-29T07:51:49;99537.09;;;33.68
58909;BMP280;44690;48.154;17.102;2022-07-29T07:53:22;99546.06;;;34.07
58909;BMP280;44690;48.154;17.102;2022-07-29T07:54:54;99530.78;;;34.56
58909;BMP280;44690;48.154;17.102;2022-07-29T07:56:26;99537.69;;;35.13
58909;BMP280;44690;48.154;17.102;2022-07-29T07:58:05;99541.22;;;35.13
58909;BMP280;44690;48.154;17.102;2022-07-29T07:59:38;99541.34;;;35.09
58909;BMP280;44690;48.154;17.102;2022-07-29T08:01:13;99539.16;;;35.12
58909;BMP280;44690;48.154;17.102;2022-07-29T08:02:45;99542.56;;;35.16
58909;BMP280;44690;48.154;17.102;2022-07-29T08:04:18;99535.44;;;35.42
58909;BMP280;44690;48.154;17.102;2022-07-29T08:05:57;99537.34;;;35.50
58909;BMP280;44690;48.154;17.102;2022-07-29T08:07:30;99536.69;;;35.47
58909;BMP280;44690;48.154;17.102;2022-07-29T08:09:03;99538.59;;;35.77
58909;BMP280;44690;48.154;17.102;2022-07-29T08:10:56;99543.22;;;35.64
58909;BMP280;44690;48.154;17.102;2022-07-29T08:12:28;99536.78;;;35.20
58909;BMP280;44690;48.154;17.102;2022-07-29T08:14:00;99528.31;;;34.95
58909;BMP280;44690;48.154;17.102;2022-07-29T08:15:33;99537.53;;;34.67
58909;BMP280;44690;48.154;17.102;2022-07-29T08:17:06;99539.59;;;34.42
58909;BMP280;44690;48.154;17.102;2022-07-29T08:18:39;99538.00;;;34.49
58909;BMP280;44690;48.154;17.102;2022-07-29T08:20:12;99542.56;;;34.36
58909;BMP280;44690;48.154;17.102;2022-07-29T08:21:44;99540.94;;;34.16
58909;BMP280;44690;48.154;17.102;2022-07-29T08:23:16;99544.56;;;34.12
58909;BMP280;44690;48.154;17.102;2022-07-29T08:24:50;99545.66;;;33.95
58909;BMP280;44690;48.154;17.102;2022-07-29T08:26:27;99548.06;;;33.82
58909;BMP280;44690;48.154;17.102;2022-07-29T08:27:59;99546.59;;;33.52
58909;BMP280;44690;48.154;17.102;2022-07-29T08:29:31;99545.59;;;33.31
58909;BMP280;44690;48.154;17.102;2022-07-29T08:31:10;99538.28;;;33.11
58909;BMP280;44690;48.154;17.102;2022-07-29T08:32:42;99541.59;;;33.22
58909;BMP280;44690;48.154;17.102;2022-07-29T08:34:25;99542.63;;;33.41
58909;BMP280;44690;48.154;17.102;2022-07-29T08:35:59;99544.97;;;33.63
58909;BMP280;44690;48.154;17.102;2022-07-29T08:37:31;99544.50;;;33.84
58909;BMP280;44690;48.154;17.102;2022-07-29T08:39:03;99548.84;;;34.09
58909;BMP280;44690;48.154;17.102;2022-07-29T08:40:35;99540.94;;;34.45
58909;BMP280;44690;48.154;17.102;2022-07-29T08:42:08;99541.00;;;34.43
58909;BMP280;44690;48.154;17.102;2022-07-29T08:43:41;99539.34;;;34.23
58909;BMP280;44690;48.154;17.102;2022-07-29T08:45:13;99539.03;;;34.08
58909;BMP280;44690;48.154;17.102;2022-07-29T08:46:45;99550.25;;;34.39
58909;BMP280;44690;48.154;17.102;2022-07-29T08:48:19;99548.94;;;34.88
58909;BMP280;44690;48.154;17.102;2022-07-29T08:49:52;99546.84;;;35.13
58909;BMP280;44690;48.154;17.102;2022-07-29T08:51:24;99542.25;;;35.26
58909;BMP280;44690;48.154;17.102;2022-07-29T08:52:57;99546.75;;;35.17
58909;BMP280;44690;48.154;17.102;2022-07-29T08:54:31;99550.28;;;35.65
58909;BMP280;44690;48.154;17.102;2022-07-29T08:56:03;99552.88;;;36.17
58909;BMP280;44690;48.154;17.102;2022-07-29T08:57:37;99543.28;;;36.70
58909;BMP280;44690;48.154;17.102;2022-07-29T08:59:22;99536.63;;;37.36
58909;BMP280;44690;48.154;17.102;2022-07-29T09:00:56;99548.78;;;37.86
58909;BMP280;44690;48.154;17.102;2022-07-29T09:02:35;99542.91;;;38.07
58909;BMP280;44690;48.154;17.102;2022-07-29T09:04:10;99542.81;;;37.76
58909;BMP280;44690;48.154;17.102;2022-07-29T09:05:42;99546.00;;;37.30
58909;BMP280;44690;48.154;17.102;2022-07-29T09:07:19;99537.97;;;36.99
58909;BMP280;44690;48.154;17.102;2022-07-29T09:08:51;99544.09;;;36.46